sensor_id;sensor_type;location;lat;lon;timestamp;pressure;altitude;pressure_sealevel;temperature;humidity
11099;BME280;12223;42.650;23.364;2023-11-21T00:00:21;94573.78;;;8.12;80.07
11099;BME280;12223;42.650;23.364;2023-11-21T00:02:48;94568.44;;;7.74;81.50
11099;BME280;12223;42.650;23.364;2023-11-21T00:05:15;94575.19;;;7.37;83.76
11099;BME280;12223;42.650;23.364;2023-11-21T00:07:42;94570.56;;;6.93;88.21
11099;BME280;12223;42.650;23.364;2023-11-21T00:10:10;94560.25;;;6.72;90.54
11099;BME280;12223;42.650;23.364;2023-11-21T00:12:39;94587.50;;;6.84;91.96
11099;BME280;12223;42.650;23.364;2023-11-21T00:15:08;94571.56;;;6.92;91.09
11099;BME280;12223;42.650;23.364;2023-11-21T00:17:37;94568.34;;;6.97;91.93
11099;BME280;12223;42.650;23.364;2023-11-21T00:20:06;94572.19;;;7.07;94.69
11099;BME280;12223;42.650;23.364;2023-11-21T00:22:33;94577.03;;;7.23;93.37
11099;BME280;12223;42.650;23.364;2023-11-21T00:25:00;94573.38;;;7.44;90.93
11099;BME280;12223;42.650;23.364;2023-11-21T00:27:26;94570.56;;;7.39;88.98
11099;BME280;12223;42.650;23.364;2023-11-21T00:29:53;94563.50;;;6.80;95.28
11099;BME280;12223;42.650;23.364;2023-11-21T00:32:20;94566.06;;;6.47;98.32
11099;BME280;12223;42.650;23.364;2023-11-21T00:34:48;94554.41;;;6.83;100.00
11099;BME280;12223;42.650;23.364;2023-11-21T00:37:15;94554.16;;;7.50;94.04
11099;BME280;12223;42.650;23.364;2023-11-21T00:39:41;94549.72;;;7.51;90.05
11099;BME280;12223;42.650;23.364;2023-11-21T00:42:09;94561.38;;;7.75;91.29
11099;BME280;12223;42.650;23.364;2023-11-21T00:44:37;94568.59;;;7.92;87.06
11099;BME280;12223;42.650;23.364;2023-11-21T00:47:04;94564.88;;;7.29;91.33
11099;BME280;12223;42.650;23.364;2023-11-21T00:49:31;94540.25;;;7.30;92.73
11099;BME280;12223;42.650;23.364;2023-11-21T00:51:59;94569.88;;;7.77;91.57
11099;BME280;12223;42.650;23.364;2023-11-21T00:54:27;94570.66;;;8.35;85.96
11099;BME280;12223;42.650;23.364;2023-11-21T00:56:54;94558.94;;;8.24;84.19
11099;BME280;12223;42.650;23.364;2023-11-21T00:59:21;94559.75;;;8.25;85.23
11099;BME280;12223;42.650;23.364;2023-11-21T01:01:49;94553.38;;;8.01;84.70
11099;BME280;12223;42.650;23.364;2023-11-21T01:04:16;94544.16;;;8.23;84.35
11099;BME280;12223;42.650;23.364;2023-11-21T01:06:43;94546.75;;;7.85;84.50
11099;BME280;12223;42.650;23.364;2023-11-21T01:09:12;94548.66;;;8.16;82.48
11099;BME280;12223;42.650;23.364;2023-11-21T01:11:38;94552.00;;;7.92;82.16
11099;BME280;12223;42.650;23.364;2023-11-21T01:14:05;94549.53;;;7.39;86.61
11099;BME280;12223;42.650;23.364;2023-11-21T01:16:34;94545.28;;;8.09;83.26
11099;BME280;12223;42.650;23.364;2023-11-21T01:19:01;94527.31;;;7.15;81.97
11099;BME280;12223;42.650;23.364;2023-11-21T01:21:29;94545.91;;;6.61;89.60
11099;BME280;12223;42.650;23.364;2023-11-21T01:23:56;94554.63;;;7.14;88.58
11099;BME280;12223;42.650;23.364;2023-11-21T01:26:24;94558.63;;;7.17;92.26
11099;BME280;12223;42.650;23.364;2023-11-21T01:28:51;94559.56;;;7.68;90.12
11099;BME280;12223;42.650;23.364;2023-11-21T01:31:18;94554.56;;;7.34;91.01
11099;BME280;12223;42.650;23.364;2023-11-21T01:33:45;94548.66;;;7.65;91.08
11099;BME280;12223;42.650;23.364;2023-11-21T01:36:12;94547.34;;;7.94;86.86
11099;BME280;12223;42.650;23.364;2023-11-21T01:38:39;94540.59;;;7.47;89.17
11099;BME280;12223;42.650;23.364;2023-11-21T01:41:06;94530.34;;;7.32;89.34
11099;BME280;12223;42.650;23.364;2023-11-21T01:43:34;94554.56;;;7.34;89.36
11099;BME280;12223;42.650;23.364;2023-11-21T01:46:01;94558.44;;;7.18;89.73
11099;BME280;12223;42.650;23.364;2023-11-21T01:48:27;94554.75;;;6.47;96.82
11099;BME280;12223;42.650;23.364;2023-11-21T01:50:55;94550.97;;;6.63;96.33
11099;BME280;12223;42.650;23.364;2023-11-21T01:53:24;94549.47;;;6.27;100.00
11099;BME280;12223;42.650;23.364;2023-11-21T01:55:51;94533.56;;;6.29;100.00
11099;BME280;12223;42.650;23.364;2023-11-21T01:58:19;94534.38;;;5.75;100.00
11099;BME280;12223;42.650;23.364;2023-11-21T02:00:48;94539.16;;;5.65;100.00
11099;BME280;12223;42.650;23.364;2023-11-21T02:03:16;94548.78;;;4.96;100.00
11099;BME280;12223;42.650;23.364;2023-11-21T02:05:43;94549.72;;;4.60;100.00
11099;BME280;12223;42.650;23.364;2023-11-21T02:08:09;94532.19;;;5.85;100.00
11099;BME280;12223;42.650;23.364;2023-11-21T02:10:36;94540.13;;;5.98;100.00
11099;BME280;12223;42.650;23.364;2023-11-21T02:13:03;94541.34;;;5.27;100.00
11099;BME280;12223;42.650;23.364;2023-11-21T02:15:31;94548.19;;;5.97;100.00
11099;BME280;12223;42.650;23.364;2023-11-21T02:17:59;94547.47;;;5.75;100.00
11099;BME280;12223;42.650;23.364;2023-11-21T02:20:28;94543.91;;;6.63;100.00
11099;BME280;12223;42.650;23.364;2023-11-21T02:22:57;94549.94;;;7.10;100.00
11099;BME280;12223;42.650;23.364;2023-11-21T02:25:25;94541.03;;;6.25;100.00
11099;BME280;12223;42.650;23.364;2023-11-21T02:27:53;94539.41;;;5.83;100.00
11099;BME280;12223;42.650;23.364;2023-11-21T02:30:20;94531.72;;;6.23;100.00
11099;BME280;12223;42.650;23.364;2023-11-21T02:32:47;94532.88;;;6.00;100.00
11099;BME280;12223;42.650;23.364;2023-11-21T02:35:15;94541.88;;;6.65;100.00
11099;BME280;12223;42.650;23.364;2023-11-21T02:37:42;94529.75;;;7.17;97.94
11099;BME280;12223;42.650;23.364;2023-11-21T02:40:11;94535.59;;;6.46;97.63
11099;BME280;12223;42.650;23.364;2023-11-21T02:42:39;94536.25;;;6.88;96.51
11099;BME280;12223;42.650;23.364;2023-11-21T02:45:07;94537.13;;;6.15;97.84
11099;BME280;12223;42.650;23.364;2023-11-21T02:47:34;94546.72;;;5.47;100.00
11099;BME280;12223;42.650;23.364;2023-11-21T02:50:01;94532.25;;;5.16;100.00
11099;BME280;12223;42.650;23.364;2023-11-21T02:52:28;94544.16;;;6.01;100.00
11099;BME280;12223;42.650;23.364;2023-11-21T02:54:55;94534.13;;;6.11;100.00
11099;BME280;12223;42.650;23.364;2023-11-21T02:57:23;94537.06;;;5.95;100.00
11099;BME280;12223;42.650;23.364;2023-11-21T02:59:50;94541.16;;;5.29;100.00
11099;BME280;12223;42.650;23.364;2023-11-21T03:02:16;94534.19;;;5.83;100.00
11099;BME280;12223;42.650;23.364;2023-11-21T03:04:43;94530.66;;;6.04;100.00
11099;BME280;12223;42.650;23.364;2023-11-21T03:07:10;94528.94;;;5.83;100.00
11099;BME280;12223;42.650;23.364;2023-11-21T03:09:36;94525.06;;;6.27;100.00
11099;BME280;12223;42.650;23.364;2023-11-21T03:12:04;94531.31;;;6.19;100.00
11099;BME280;12223;42.650;23.364;2023-11-21T03:14:33;94531.91;;;6.21;100.00
11099;BME280;12223;42.650;23.364;2023-11-21T03:17:00;94530.53;;;6.45;100.00
11099;BME280;12223;42.650;23.364;2023-11-21T03:19:26;94528.94;;;6.83;100.00
11099;BME280;12223;42.650;23.364;2023-11-21T03:21:53;94527.13;;;6.44;100.00
11099;BME280;12223;42.650;23.364;2023-11-21T03:24:20;94532.16;;;6.46;100.00
11099;BME280;12223;42.650;23.364;2023-11-21T03:26:48;94550.09;;;5.82;100.00
11099;BME280;12223;42.650;23.364;2023-11-21T03:29:15;94544.28;;;6.47;100.00
11099;BME280;12223;42.650;23.364;2023-11-21T03:31:43;94552.34;;;5.50;100.00
11099;BME280;12223;42.650;23.364;2023-11-21T03:34:16;94549.78;;;5.57;100.00
11099;BME280;12223;42.650;23.364;2023-11-21T03:36:43;94548.47;;;6.28;100.00
11099;BME280;12223;42.650;23.364;2023-11-21T03:39:11;94546.19;;;5.99;100.00
11099;BME280;12223;42.650;23.364;2023-11-21T03:41:38;94548.50;;;5.81;100.00
11099;BME280;12223;42.650;23.364;2023-11-21T03:44:05;94546.72;;;5.47;100.00
11099;BME280;12223;42.650;23.364;2023-11-21T03:46:32;94548.22;;;6.10;100.00
11099;BME280;12223;42.650;23.364;2023-11-21T03:49:00;94536.09;;;5.55;100.00
11099;BME280;12223;42.650;23.364;2023-11-21T03:51:26;94529.22;;;5.95;100.00
11099;BME280;12223;42.650;23.364;2023-11-21T03:53:53;94522.28;;;5.74;100.00
11099;BME280;12223;42.650;23.364;2023-11-21T03:56:20;94509.47;;;5.99;100.00
11099;BME280;12223;42.650;23.364;2023-11-21T03:58:47;94508.72;;;5.64;100.00
11099;BME280;12223;42.650;23.364;2023-11-21T04:01:19;94528.41;;;5.94;100.00
11099;BME280;12223;42.650;23.364;2023-11-21T04:03:47;94520.19;;;6.11;100.00
11099;BME280;12223;42.650;23.364;2023-11-21T04:06:15;94521.19;;;5.55;100.00
11099;BME280;12223;42.650;23.364;2023-11-21T04:08:42;94511.41;;;5.02;100.00
11099;BME280;12223;42.650;23.364;2023-11-21T04:11:09;94472.53;;;4.99;100.00
11099;BME280;12223;42.650;23.364;2023-11-21T04:13:37;94513.88;;;5.51;100.00
11099;BME280;12223;42.650;23.364;2023-11-21T04:16:04;94514.38;;;5.68;100.00
11099;BME280;12223;42.650;23.364;2023-11-21T04:18:31;94504.38;;;5.37;100.00
11099;BME280;12223;42.650;23.364;2023-11-21T04:20:59;94504.06;;;6.20;100.00
11099;BME280;12223;42.650;23.364;2023-11-21T04:23:28;94507.91;;;6.11;100.00
11099;BME280;12223;42.650;23.364;2023-11-21T04:25:55;94510.00;;;6.75;100.00
11099;BME280;12223;42.650;23.364;2023-11-21T04:28:22;94511.78;;;7.14;100.00
11099;BME280;12223;42.650;23.364;2023-11-21T04:30:49;94509.97;;;7.14;100.00
11099;BME280;12223;42.650;23.364;2023-11-21T04:33:16;94515.44;;;6.93;100.00
11099;BME280;12223;42.650;23.364;2023-11-21T04:35:43;94519.69;;;6.74;100.00
11099;BME280;12223;42.650;23.364;2023-11-21T04:38:10;94512.41;;;6.57;100.00
11099;BME280;12223;42.650;23.364;2023-11-21T04:40:38;94506.56;;;5.74;100.00
11099;BME280;12223;42.650;23.364;2023-11-21T04:43:05;94508.50;;;5.59;100.00
11099;BME280;12223;42.650;23.364;2023-11-21T04:45:31;94510.53;;;5.22;100.00
11099;BME280;12223;42.650;23.364;2023-11-21T04:47:58;94507.44;;;5.88;100.00
11099;BME280;12223;42.650;23.364;2023-11-21T04:50:25;94507.75;;;5.78;100.00
11099;BME280;12223;42.650;23.364;2023-11-21T04:52:53;94518.00;;;6.27;100.00
11099;BME280;12223;42.650;23.364;2023-11-21T04:55:20;94519.22;;;6.18;100.00
11099;BME280;12223;42.650;23.364;2023-11-21T04:57:48;94521.31;;;6.82;100.00
11099;BME280;12223;42.650;23.364;2023-11-21T05:00:15;94515.63;;;6.78;100.00
11099;BME280;12223;42.650;23.364;2023-11-21T05:02:41;94515.19;;;6.22;100.00
11099;BME280;12223;42.650;23.364;2023-11-21T05:05:09;94512.00;;;6.66;100.00
11099;BME280;12223;42.650;23.364;2023-11-21T05:07:36;94520.44;;;7.21;100.00
11099;BME280;12223;42.650;23.364;2023-11-21T05:10:05;94532.38;;;7.10;100.00
11099;BME280;12223;42.650;23.364;2023-11-21T05:12:34;94530.81;;;6.76;98.93
11099;BME280;12223;42.650;23.364;2023-11-21T05:15:04;94509.34;;;7.25;98.13
11099;BME280;12223;42.650;23.364;2023-11-21T05:17:35;94504.56;;;6.70;100.00
11099;BME280;12223;42.650;23.364;2023-11-21T05:20:02;94509.00;;;6.69;100.00
11099;BME280;12223;42.650;23.364;2023-11-21T05:22:33;94515.25;;;7.01;100.00
11099;BME280;12223;42.650;23.364;2023-11-21T05:25:00;94509.19;;;7.72;95.01
11099;BME280;12223;42.650;23.364;2023-11-21T05:27:29;94506.84;;;7.57;93.07
11099;BME280;12223;42.650;23.364;2023-11-21T05:29:56;94512.19;;;7.88;91.13
11099;BME280;12223;42.650;23.364;2023-11-21T05:32:24;94521.47;;;7.84;91.89
11099;BME280;12223;42.650;23.364;2023-11-21T05:34:51;94520.63;;;7.97;91.06
11099;BME280;12223;42.650;23.364;2023-11-21T05:37:18;94520.97;;;8.52;84.25
11099;BME280;12223;42.650;23.364;2023-11-21T05:39:45;94524.91;;;8.36;83.27
11099;BME280;12223;42.650;23.364;2023-11-21T05:42:12;94534.81;;;7.18;87.94
11099;BME280;12223;42.650;23.364;2023-11-21T05:44:41;94523.47;;;6.26;100.00
11099;BME280;12223;42.650;23.364;2023-11-21T05:47:09;94521.47;;;6.41;100.00
11099;BME280;12223;42.650;23.364;2023-11-21T05:49:37;94519.25;;;6.44;100.00
11099;BME280;12223;42.650;23.364;2023-11-21T05:52:04;94527.44;;;6.09;100.00
11099;BME280;12223;42.650;23.364;2023-11-21T05:54:31;94524.50;;;6.97;100.00
11099;BME280;12223;42.650;23.364;2023-11-21T05:56:59;94512.78;;;7.33;96.68
11099;BME280;12223;42.650;23.364;2023-11-21T05:59:26;94527.44;;;7.53;94.20
11099;BME280;12223;42.650;23.364;2023-11-21T06:01:52;94525.75;;;6.88;94.90
11099;BME280;12223;42.650;23.364;2023-11-21T06:04:20;94521.84;;;5.71;100.00
11099;BME280;12223;42.650;23.364;2023-11-21T06:06:51;94526.69;;;6.34;100.00
11099;BME280;12223;42.650;23.364;2023-11-21T06:09:18;94520.06;;;6.71;100.00
11099;BME280;12223;42.650;23.364;2023-11-21T06:11:45;94521.19;;;7.54;100.00
11099;BME280;12223;42.650;23.364;2023-11-21T06:14:11;94521.16;;;5.96;100.00
11099;BME280;12223;42.650;23.364;2023-11-21T06:16:38;94528.94;;;6.83;100.00
11099;BME280;12223;42.650;23.364;2023-11-21T06:19:05;94537.66;;;7.88;99.49
11099;BME280;12223;42.650;23.364;2023-11-21T06:21:32;94531.81;;;8.24;88.05
11099;BME280;12223;42.650;23.364;2023-11-21T06:24:00;94545.94;;;6.81;99.15
11099;BME280;12223;42.650;23.364;2023-11-21T06:26:27;94547.56;;;7.02;100.00
11099;BME280;12223;42.650;23.364;2023-11-21T06:28:54;94537.72;;;7.75;98.42
11099;BME280;12223;42.650;23.364;2023-11-21T06:31:22;94536.44;;;8.28;87.40
11099;BME280;12223;42.650;23.364;2023-11-21T06:33:49;94548.94;;;7.04;93.45
11099;BME280;12223;42.650;23.364;2023-11-21T06:36:17;94550.16;;;7.15;100.00
11099;BME280;12223;42.650;23.364;2023-11-21T06:38:44;94550.84;;;8.32;92.63
11099;BME280;12223;42.650;23.364;2023-11-21T06:41:12;94554.34;;;9.14;84.25
11099;BME280;12223;42.650;23.364;2023-11-21T06:43:40;94560.41;;;7.49;92.30
11099;BME280;12223;42.650;23.364;2023-11-21T06:46:10;94557.00;;;7.29;100.00
11099;BME280;12223;42.650;23.364;2023-11-21T06:48:40;94558.06;;;8.43;92.75
11099;BME280;12223;42.650;23.364;2023-11-21T06:51:06;94544.41;;;9.77;80.60
11099;BME280;12223;42.650;23.364;2023-11-21T06:53:33;94547.19;;;10.78;73.49
11099;BME280;12223;42.650;23.364;2023-11-21T06:56:00;94547.72;;;10.99;69.09
11099;BME280;12223;42.650;23.364;2023-11-21T06:58:28;94551.44;;;11.67;66.85
11099;BME280;12223;42.650;23.364;2023-11-21T07:00:55;94556.13;;;11.89;62.98
11099;BME280;12223;42.650;23.364;2023-11-21T07:03:23;94557.59;;;12.08;63.59
11099;BME280;12223;42.650;23.364;2023-11-21T07:05:51;94562.91;;;12.20;61.45
11099;BME280;12223;42.650;23.364;2023-11-21T07:08:18;94553.97;;;11.62;64.12
11099;BME280;12223;42.650;23.364;2023-11-21T07:10:45;94552.09;;;12.09;63.90
11099;BME280;12223;42.650;23.364;2023-11-21T07:13:12;94544.69;;;12.23;61.61
11099;BME280;12223;42.650;23.364;2023-11-21T07:15:40;94548.44;;;11.29;66.61
11099;BME280;12223;42.650;23.364;2023-11-21T07:18:07;94537.50;;;12.35;62.78
11099;BME280;12223;42.650;23.364;2023-11-21T07:20:34;94537.19;;;13.05;58.56
11099;BME280;12223;42.650;23.364;2023-11-21T07:23:00;94541.69;;;13.55;56.45
11099;BME280;12223;42.650;23.364;2023-11-21T07:25:27;94533.41;;;13.68;56.02
11099;BME280;12223;42.650;23.364;2023-11-21T07:27:54;94538.28;;;13.76;54.04
11099;BME280;12223;42.650;23.364;2023-11-21T07:30:21;94540.72;;;12.94;56.75
11099;BME280;12223;42.650;23.364;2023-11-21T07:32:50;94538.66;;;13.85;53.63
11099;BME280;12223;42.650;23.364;2023-11-21T07:35:16;94551.09;;;14.23;52.46
11099;BME280;12223;42.650;23.364;2023-11-21T07:37:43;94538.03;;;14.16;52.18
11099;BME280;12223;42.650;23.364;2023-11-21T07:40:11;94531.81;;;14.76;50.57
11099;BME280;12223;42.650;23.364;2023-11-21T07:42:38;94538.00;;;13.56;51.09
11099;BME280;12223;42.650;23.364;2023-11-21T07:45:06;94537.75;;;13.41;53.88
11099;BME280;12223;42.650;23.364;2023-11-21T07:47:33;94546.91;;;14.05;51.69
11099;BME280;12223;42.650;23.364;2023-11-21T07:50:03;94544.06;;;13.73;53.63
11099;BME280;12223;42.650;23.364;2023-11-21T07:52:30;94534.88;;;14.19;51.70
11099;BME280;12223;42.650;23.364;2023-11-21T07:54:56;94528.13;;;13.18;54.21
11099;BME280;12223;42.650;23.364;2023-11-21T07:57:23;94531.19;;;13.26;53.62
11099;BME280;12223;42.650;23.364;2023-11-21T07:59:50;94531.66;;;13.95;53.61
11099;BME280;12223;42.650;23.364;2023-11-21T08:02:19;94439.22;;;13.92;51.47
11099;BME280;12223;42.650;23.364;2023-11-21T08:04:45;94518.84;;;14.79;50.31
11099;BME280;12223;42.650;23.364;2023-11-21T08:07:16;94511.84;;;14.46;49.83
11099;BME280;12223;42.650;23.364;2023-11-21T08:09:43;94511.88;;;13.86;51.65
11099;BME280;12223;42.650;23.364;2023-11-21T08:12:10;94513.72;;;13.86;52.46
11099;BME280;12223;42.650;23.364;2023-11-21T08:14:37;94503.00;;;13.97;52.04
11099;BME280;12223;42.650;23.364;2023-11-21T08:17:04;94517.88;;;13.10;54.65
11099;BME280;12223;42.650;23.364;2023-11-21T08:19:31;94514.13;;;12.61;56.35
11099;BME280;12223;42.650;23.364;2023-11-21T08:21:58;94508.00;;;12.88;57.31
11099;BME280;12223;42.650;23.364;2023-11-21T08:24:26;94513.25;;;13.50;54.83
11099;BME280;12223;42.650;23.364;2023-11-21T08:26:53;94432.28;;;13.48;53.33
11099;BME280;12223;42.650;23.364;2023-11-21T08:29:19;94521.06;;;13.23;53.78
11099;BME280;12223;42.650;23.364;2023-11-21T08:31:47;94517.00;;;13.04;57.16
11099;BME280;12223;42.650;23.364;2023-11-21T08:34:13;94524.13;;;13.32;55.80
11099;BME280;12223;42.650;23.364;2023-11-21T08:36:41;94516.03;;;13.10;55.86
11099;BME280;12223;42.650;23.364;2023-11-21T08:39:08;94517.38;;;13.80;54.39
11099;BME280;12223;42.650;23.364;2023-11-21T08:41:37;94515.03;;;13.45;53.67
11099;BME280;12223;42.650;23.364;2023-11-21T08:44:04;94517.00;;;13.71;53.87
11099;BME280;12223;42.650;23.364;2023-11-21T08:46:32;94499.41;;;13.48;54.55
11099;BME280;12223;42.650;23.364;2023-11-21T08:49:00;94511.53;;;11.46;59.47
11099;BME280;12223;42.650;23.364;2023-11-21T08:51:27;94522.03;;;11.76;62.58
11099;BME280;12223;42.650;23.364;2023-11-21T08:53:54;94513.22;;;12.38;59.71
11099;BME280;12223;42.650;23.364;2023-11-21T08:56:24;94509.41;;;12.34;58.67
11099;BME280;12223;42.650;23.364;2023-11-21T08:58:52;94502.63;;;13.00;58.08
11099;BME280;12223;42.650;23.364;2023-11-21T09:01:19;94499.56;;;13.58;54.88
11099;BME280;12223;42.650;23.364;2023-11-21T09:03:46;94498.91;;;13.68;53.51
11099;BME280;12223;42.650;23.364;2023-11-21T09:06:13;94480.16;;;13.75;52.54
11099;BME280;12223;42.650;23.364;2023-11-21T09:08:40;94478.06;;;13.98;52.12
11099;BME280;12223;42.650;23.364;2023-11-21T09:11:07;94437.38;;;13.71;52.64
11099;BME280;12223;42.650;23.364;2023-11-21T09:13:34;94452.75;;;13.91;52.19
11099;BME280;12223;42.650;23.364;2023-11-21T09:16:03;94448.03;;;12.82;56.48
11099;BME280;12223;42.650;23.364;2023-11-21T09:18:31;94451.56;;;12.88;57.12
11099;BME280;12223;42.650;23.364;2023-11-21T09:20:57;94447.44;;;12.80;57.27
11099;BME280;12223;42.650;23.364;2023-11-21T09:23:24;94439.50;;;12.97;57.42
11099;BME280;12223;42.650;23.364;2023-11-21T09:25:52;94437.97;;;12.68;58.97
11099;BME280;12223;42.650;23.364;2023-11-21T09:28:22;94427.84;;;12.98;58.87
11099;BME280;12223;42.650;23.364;2023-11-21T09:30:49;94420.63;;;12.60;60.15
11099;BME280;12223;42.650;23.364;2023-11-21T09:33:17;94416.78;;;13.01;57.94
11099;BME280;12223;42.650;23.364;2023-11-21T09:35:44;94397.63;;;13.33;55.86
11099;BME280;12223;42.650;23.364;2023-11-21T09:38:11;94393.22;;;13.21;56.87
11099;BME280;12223;42.650;23.364;2023-11-21T09:40:38;94390.81;;;13.20;56.91
11099;BME280;12223;42.650;23.364;2023-11-21T09:43:06;94389.56;;;12.89;58.07
11099;BME280;12223;42.650;23.364;2023-11-21T09:45:35;94386.56;;;12.85;58.53
11099;BME280;12223;42.650;23.364;2023-11-21T09:48:02;94387.97;;;13.10;58.20
11099;BME280;12223;42.650;23.364;2023-11-21T09:50:32;94380.59;;;13.50;57.00
11099;BME280;12223;42.650;23.364;2023-11-21T09:53:09;94367.63;;;13.76;56.51
11099;BME280;12223;42.650;23.364;2023-11-21T09:55:42;94366.94;;;13.85;55.97
11099;BME280;12223;42.650;23.364;2023-11-21T09:58:10;94351.41;;;13.99;54.97
11099;BME280;12223;42.650;23.364;2023-11-21T10:00:42;94338.84;;;13.19;56.51
11099;BME280;12223;42.650;23.364;2023-11-21T10:03:09;94332.13;;;13.33;56.99
11099;BME280;12223;42.650;23.364;2023-11-21T10:05:39;94337.34;;;13.50;57.35
11099;BME280;12223;42.650;23.364;2023-11-21T10:08:07;94348.41;;;13.63;56.59
11099;BME280;12223;42.650;23.364;2023-11-21T10:10:35;94335.91;;;14.13;54.65
11099;BME280;12223;42.650;23.364;2023-11-21T10:13:03;94342.94;;;13.53;55.03
11099;BME280;12223;42.650;23.364;2023-11-21T10:15:33;94337.59;;;13.26;57.10
11099;BME280;12223;42.650;23.364;2023-11-21T10:18:02;94330.19;;;12.90;58.85
11099;BME280;12223;42.650;23.364;2023-11-21T10:20:30;94325.84;;;13.01;60.15
11099;BME280;12223;42.650;23.364;2023-11-21T10:23:02;94320.94;;;14.01;56.20
11099;BME280;12223;42.650;23.364;2023-11-21T10:25:29;94313.94;;;12.48;59.46
11099;BME280;12223;42.650;23.364;2023-11-21T10:27:58;94317.25;;;10.97;65.22
11099;BME280;12223;42.650;23.364;2023-11-21T10:30:29;94311.22;;;12.98;60.24
11099;BME280;12223;42.650;23.364;2023-11-21T10:33:02;94308.69;;;14.00;55.74
11099;BME280;12223;42.650;23.364;2023-11-21T10:35:39;94313.13;;;14.85;55.56
11099;BME280;12223;42.650;23.364;2023-11-21T10:38:08;94294.25;;;14.87;53.50
11099;BME280;12223;42.650;23.364;2023-11-21T10:40:37;94302.09;;;15.09;52.01
11099;BME280;12223;42.650;23.364;2023-11-21T10:43:07;94299.25;;;15.30;50.56
11099;BME280;12223;42.650;23.364;2023-11-21T10:45:36;94293.88;;;15.88;49.55
11099;BME280;12223;42.650;23.364;2023-11-21T10:48:05;94292.06;;;16.34;47.50
11099;BME280;12223;42.650;23.364;2023-11-21T10:50:34;94293.16;;;15.30;49.20
11099;BME280;12223;42.650;23.364;2023-11-21T10:53:02;94297.06;;;15.90;47.29
11099;BME280;12223;42.650;23.364;2023-11-21T10:55:33;94293.28;;;15.60;47.61
11099;BME280;12223;42.650;23.364;2023-11-21T10:58:01;94295.69;;;13.07;53.91
11099;BME280;12223;42.650;23.364;2023-11-21T11:00:30;94277.72;;;14.80;50.50
11099;BME280;12223;42.650;23.364;2023-11-21T11:02:57;94283.72;;;14.60;51.31
11099;BME280;12223;42.650;23.364;2023-11-21T11:05:25;94273.97;;;15.28;48.49
11099;BME280;12223;42.650;23.364;2023-11-21T11:07:58;94277.59;;;14.60;49.88
11099;BME280;12223;42.650;23.364;2023-11-21T11:10:27;94273.38;;;13.73;52.45
11099;BME280;12223;42.650;23.364;2023-11-21T11:12:56;94277.53;;;13.37;54.08
11099;BME280;12223;42.650;23.364;2023-11-21T11:15:24;94264.13;;;14.34;52.42
11099;BME280;12223;42.650;23.364;2023-11-21T11:17:52;94273.53;;;14.94;50.36
11099;BME280;12223;42.650;23.364;2023-11-21T11:20:23;94263.25;;;15.13;49.64
11099;BME280;12223;42.650;23.364;2023-11-21T11:22:58;94236.34;;;15.72;47.21
11099;BME280;12223;42.650;23.364;2023-11-21T11:25:40;94244.88;;;15.84;46.75
11099;BME280;12223;42.650;23.364;2023-11-21T11:28:20;94234.50;;;16.07;46.64
11099;BME280;12223;42.650;23.364;2023-11-21T11:30:59;94233.72;;;15.92;46.84
11099;BME280;12223;42.650;23.364;2023-11-21T11:33:35;94226.25;;;15.99;46.60
11099;BME280;12223;42.650;23.364;2023-11-21T11:36:06;94224.25;;;15.44;48.07
11099;BME280;12223;42.650;23.364;2023-11-21T11:38:34;94220.63;;;15.60;47.83
11099;BME280;12223;42.650;23.364;2023-11-21T11:41:02;94224.06;;;15.60;47.61
11099;BME280;12223;42.650;23.364;2023-11-21T11:43:32;94195.91;;;14.40;50.70
11099;BME280;12223;42.650;23.364;2023-11-21T11:46:05;94222.47;;;14.40;50.18
11099;BME280;12223;42.650;23.364;2023-11-21T11:48:35;94224.38;;;13.81;51.63
11099;BME280;12223;42.650;23.364;2023-11-21T11:51:05;94224.69;;;13.84;54.11
11099;BME280;12223;42.650;23.364;2023-11-21T11:53:38;94249.88;;;12.68;55.98
11099;BME280;12223;42.650;23.364;2023-11-21T11:56:24;94241.56;;;12.42;59.67
11099;BME280;12223;42.650;23.364;2023-11-21T11:58:54;94244.25;;;12.26;60.51
11099;BME280;12223;42.650;23.364;2023-11-21T12:01:22;94223.78;;;12.21;61.01
11099;BME280;12223;42.650;23.364;2023-11-21T12:04:23;94228.72;;;12.51;63.15
11099;BME280;12223;42.650;23.364;2023-11-21T12:06:56;94229.25;;;11.98;64.37
11099;BME280;12223;42.650;23.364;2023-11-21T12:09:26;94242.16;;;11.49;66.73
11099;BME280;12223;42.650;23.364;2023-11-21T12:11:53;94241.75;;;11.86;70.78
11099;BME280;12223;42.650;23.364;2023-11-21T12:14:23;94234.69;;;12.08;70.24
11099;BME280;12223;42.650;23.364;2023-11-21T12:16:50;94242.66;;;12.63;72.04
11099;BME280;12223;42.650;23.364;2023-11-21T12:19:18;94245.75;;;12.22;76.34
11099;BME280;12223;42.650;23.364;2023-11-21T12:21:48;94244.09;;;12.32;75.76
11099;BME280;12223;42.650;23.364;2023-11-21T12:24:15;94250.25;;;11.88;77.36
11099;BME280;12223;42.650;23.364;2023-11-21T12:26:43;94233.50;;;11.82;75.32
11099;BME280;12223;42.650;23.364;2023-11-21T12:29:10;94229.25;;;11.98;75.01
11099;BME280;12223;42.650;23.364;2023-11-21T12:31:38;94241.28;;;10.64;85.40
11099;BME280;12223;42.650;23.364;2023-11-21T12:34:06;94250.09;;;11.21;83.14
11099;BME280;12223;42.650;23.364;2023-11-21T12:36:34;94246.75;;;10.85;82.42
11099;BME280;12223;42.650;23.364;2023-11-21T12:39:02;94245.03;;;11.19;83.92
11099;BME280;12223;42.650;23.364;2023-11-21T12:41:29;94245.03;;;11.48;81.24
11099;BME280;12223;42.650;23.364;2023-11-21T12:43:57;94244.44;;;11.29;80.20
11099;BME280;12223;42.650;23.364;2023-11-21T12:46:24;94238.66;;;11.04;83.75
11099;BME280;12223;42.650;23.364;2023-11-21T12:48:56;94231.41;;;12.18;79.21
11099;BME280;12223;42.650;23.364;2023-11-21T12:51:23;94228.03;;;12.61;78.89
11099;BME280;12223;42.650;23.364;2023-11-21T12:53:50;94225.91;;;13.23;74.60
11099;BME280;12223;42.650;23.364;2023-11-21T12:56:18;94207.56;;;13.16;71.74